Arcola, Texas
Current Conditions -  °F | °C
As of 11:35 AM on Wednesday 26 Nov 2014 (Local Time) from KAXH Reporting Station
Clear Clear  
Wind Chill: 66°   Ceiling: Unl
Heat Index: 66°   Visibility: 10mi
Dew Point: 39°   Wind: 13mph
Humidity: 36%   Direction: 220°SW
Pressure: 30.24"   Gusts: 20mph
Location:  29.4042°N, 95.4477°W
Report Text: KAXH 261735Z AUTO 22011G17KT 10SM CLR 19/04 A3024 RMK AO2 T01900037
Loading
Personal Weather Stations






























Interactive Weather Map New forecast layout! Learn more

10-Day Weather Forecast

Advertisements
Track Severe Weather on mobile